sensor_id;sensor_type;location;lat;lon;timestamp;P1;durP1;ratioP1;P2;durP2;ratioP2
68140;SDS011;54941;52.220;104.306;2023-04-01T00:00:31;9.35;;;1.70;;
68140;SDS011;54941;52.220;104.306;2023-04-01T00:02:59;4.10;;;1.38;;
68140;SDS011;54941;52.220;104.306;2023-04-01T00:05:26;5.20;;;2.00;;
68140;SDS011;54941;52.220;104.306;2023-04-01T00:07:52;4.60;;;1.92;;
68140;SDS011;54941;52.220;104.306;2023-04-01T00:10:19;4.85;;;1.38;;
68140;SDS011;54941;52.220;104.306;2023-04-01T00:12:45;7.03;;;1.77;;
68140;SDS011;54941;52.220;104.306;2023-04-01T00:15:11;8.98;;;2.70;;
68140;SDS011;54941;52.220;104.306;2023-04-01T00:17:38;4.28;;;1.63;;
68140;SDS011;54941;52.220;104.306;2023-04-01T00:20:07;7.22;;;2.20;;
68140;SDS011;54941;52.220;104.306;2023-04-01T00:22:34;6.85;;;2.40;;
68140;SDS011;54941;52.220;104.306;2023-04-01T00:25:03;9.32;;;2.38;;
68140;SDS011;54941;52.220;104.306;2023-04-01T00:27:29;8.75;;;2.50;;
68140;SDS011;54941;52.220;104.306;2023-04-01T00:29:56;6.07;;;2.55;;
68140;SDS011;54941;52.220;104.306;2023-04-01T00:32:22;6.85;;;2.22;;
68140;SDS011;54941;52.220;104.306;2023-04-01T00:34:50;8.88;;;2.33;;
68140;SDS011;54941;52.220;104.306;2023-04-01T00:37:18;11.48;;;2.50;;
68140;SDS011;54941;52.220;104.306;2023-04-01T00:39:44;6.68;;;2.63;;
68140;SDS011;54941;52.220;104.306;2023-04-01T00:42:11;9.32;;;2.60;;
68140;SDS011;54941;52.220;104.306;2023-04-01T00:44:38;9.30;;;2.33;;
68140;SDS011;54941;52.220;104.306;2023-04-01T00:47:04;5.65;;;2.42;;
68140;SDS011;54941;52.220;104.306;2023-04-01T00:49:31;7.43;;;2.20;;
68140;SDS011;54941;52.220;104.306;2023-04-01T00:54:29;8.30;;;2.38;;
68140;SDS011;54941;52.220;104.306;2023-04-01T00:56:57;8.05;;;2.28;;
68140;SDS011;54941;52.220;104.306;2023-04-01T00:59:26;9.20;;;2.33;;
68140;SDS011;54941;52.220;104.306;2023-04-01T01:01:55;8.90;;;2.60;;
68140;SDS011;54941;52.220;104.306;2023-04-01T01:04:22;11.57;;;2.97;;
68140;SDS011;54941;52.220;104.306;2023-04-01T01:06:52;9.98;;;3.10;;
68140;SDS011;54941;52.220;104.306;2023-04-01T01:09:30;9.38;;;2.50;;
68140;SDS011;54941;52.220;104.306;2023-04-01T01:12:05;8.13;;;2.50;;
68140;SDS011;54941;52.220;104.306;2023-04-01T01:14:39;8.63;;;2.97;;
68140;SDS011;54941;52.220;104.306;2023-04-01T01:17:19;11.15;;;2.13;;
68140;SDS011;54941;52.220;104.306;2023-04-01T01:19:58;10.07;;;2.60;;
68140;SDS011;54941;52.220;104.306;2023-04-01T01:25:47;10.38;;;2.92;;
68140;SDS011;54941;52.220;104.306;2023-04-01T01:28:28;7.50;;;2.95;;
68140;SDS011;54941;52.220;104.306;2023-04-01T01:31:03;11.38;;;2.47;;
68140;SDS011;54941;52.220;104.306;2023-04-01T01:33:57;9.93;;;2.05;;
68140;SDS011;54941;52.220;104.306;2023-04-01T01:36:39;7.88;;;2.78;;
68140;SDS011;54941;52.220;104.306;2023-04-01T01:39:08;9.35;;;2.90;;
68140;SDS011;54941;52.220;104.306;2023-04-01T01:41:38;10.52;;;3.85;;
68140;SDS011;54941;52.220;104.306;2023-04-01T01:44:08;9.20;;;2.90;;
68140;SDS011;54941;52.220;104.306;2023-04-01T01:46:37;6.75;;;2.33;;
68140;SDS011;54941;52.220;104.306;2023-04-01T01:49:05;7.93;;;1.92;;
68140;SDS011;54941;52.220;104.306;2023-04-01T01:51:35;5.20;;;2.33;;
68140;SDS011;54941;52.220;104.306;2023-04-01T01:54:03;8.93;;;2.90;;
68140;SDS011;54941;52.220;104.306;2023-04-01T01:56:30;10.32;;;2.20;;
68140;SDS011;54941;52.220;104.306;2023-04-01T01:59:00;9.30;;;2.30;;
68140;SDS011;54941;52.220;104.306;2023-04-01T02:01:30;7.45;;;1.52;;
68140;SDS011;54941;52.220;104.306;2023-04-01T02:04:02;10.88;;;2.42;;
68140;SDS011;54941;52.220;104.306;2023-04-01T02:06:30;4.22;;;1.92;;
68140;SDS011;54941;52.220;104.306;2023-04-01T02:09:00;14.07;;;3.35;;
68140;SDS011;54941;52.220;104.306;2023-04-01T02:11:30;6.75;;;2.15;;
68140;SDS011;54941;52.220;104.306;2023-04-01T02:14:05;4.18;;;1.40;;
68140;SDS011;54941;52.220;104.306;2023-04-01T02:16:56;7.57;;;2.20;;
68140;SDS011;54941;52.220;104.306;2023-04-01T02:19:27;11.52;;;2.30;;
68140;SDS011;54941;52.220;104.306;2023-04-01T02:21:59;6.15;;;1.70;;
68140;SDS011;54941;52.220;104.306;2023-04-01T02:24:30;6.05;;;2.08;;
68140;SDS011;54941;52.220;104.306;2023-04-01T02:26:58;7.18;;;1.23;;
68140;SDS011;54941;52.220;104.306;2023-04-01T02:29:25;8.57;;;1.38;;
68140;SDS011;54941;52.220;104.306;2023-04-01T02:31:51;9.35;;;1.60;;
68140;SDS011;54941;52.220;104.306;2023-04-01T02:34:19;8.75;;;2.05;;
68140;SDS011;54941;52.220;104.306;2023-04-01T02:36:48;6.13;;;2.20;;
68140;SDS011;54941;52.220;104.306;2023-04-01T02:39:16;5.50;;;1.30;;
68140;SDS011;54941;52.220;104.306;2023-04-01T02:41:44;4.13;;;1.58;;
68140;SDS011;54941;52.220;104.306;2023-04-01T02:44:12;4.13;;;1.42;;
68140;SDS011;54941;52.220;104.306;2023-04-01T02:46:40;5.05;;;1.60;;
68140;SDS011;54941;52.220;104.306;2023-04-01T02:49:06;6.75;;;2.05;;
68140;SDS011;54941;52.220;104.306;2023-04-01T02:51:33;5.43;;;2.00;;
68140;SDS011;54941;52.220;104.306;2023-04-01T02:54:00;5.45;;;1.95;;
68140;SDS011;54941;52.220;104.306;2023-04-01T02:56:26;6.82;;;1.90;;
68140;SDS011;54941;52.220;104.306;2023-04-01T02:58:54;9.63;;;1.63;;
68140;SDS011;54941;52.220;104.306;2023-04-01T03:01:25;5.05;;;1.95;;
68140;SDS011;54941;52.220;104.306;2023-04-01T03:03:51;4.85;;;1.90;;
68140;SDS011;54941;52.220;104.306;2023-04-01T03:06:18;9.07;;;1.80;;
68140;SDS011;54941;52.220;104.306;2023-04-01T03:08:44;7.72;;;1.83;;
68140;SDS011;54941;52.220;104.306;2023-04-01T03:11:11;5.95;;;2.30;;
68140;SDS011;54941;52.220;104.306;2023-04-01T03:13:41;4.70;;;1.90;;
68140;SDS011;54941;52.220;104.306;2023-04-01T03:16:09;4.35;;;1.85;;
68140;SDS011;54941;52.220;104.306;2023-04-01T03:18:35;7.47;;;2.22;;
68140;SDS011;54941;52.220;104.306;2023-04-01T03:26:09;11.38;;;3.10;;
68140;SDS011;54941;52.220;104.306;2023-04-01T03:28:36;11.60;;;2.50;;
68140;SDS011;54941;52.220;104.306;2023-04-01T03:31:02;4.45;;;1.63;;
68140;SDS011;54941;52.220;104.306;2023-04-01T03:33:33;7.03;;;2.63;;
68140;SDS011;54941;52.220;104.306;2023-04-01T03:35:59;2.92;;;1.33;;
68140;SDS011;54941;52.220;104.306;2023-04-01T03:38:26;5.30;;;1.95;;
68140;SDS011;54941;52.220;104.306;2023-04-01T03:40:52;5.45;;;2.10;;
68140;SDS011;54941;52.220;104.306;2023-04-01T03:43:19;3.88;;;1.88;;
68140;SDS011;54941;52.220;104.306;2023-04-01T03:45:46;8.82;;;1.63;;
68140;SDS011;54941;52.220;104.306;2023-04-01T03:48:13;4.43;;;1.13;;
68140;SDS011;54941;52.220;104.306;2023-04-01T03:50:41;2.72;;;1.13;;
68140;SDS011;54941;52.220;104.306;2023-04-01T03:53:08;6.78;;;1.45;;
68140;SDS011;54941;52.220;104.306;2023-04-01T03:55:35;3.78;;;1.15;;
68140;SDS011;54941;52.220;104.306;2023-04-01T03:58:05;3.38;;;1.33;;
68140;SDS011;54941;52.220;104.306;2023-04-01T04:00:32;3.10;;;1.20;;
68140;SDS011;54941;52.220;104.306;2023-04-01T04:02:59;3.15;;;1.05;;
68140;SDS011;54941;52.220;104.306;2023-04-01T04:05:25;4.28;;;1.60;;
68140;SDS011;54941;52.220;104.306;2023-04-01T04:07:53;3.67;;;1.20;;
68140;SDS011;54941;52.220;104.306;2023-04-01T04:10:20;4.25;;;2.05;;
68140;SDS011;54941;52.220;104.306;2023-04-01T04:12:46;4.15;;;1.42;;
68140;SDS011;54941;52.220;104.306;2023-04-01T04:15:15;8.38;;;1.83;;
68140;SDS011;54941;52.220;104.306;2023-04-01T04:17:42;5.15;;;2.00;;
68140;SDS011;54941;52.220;104.306;2023-04-01T04:20:09;7.35;;;1.95;;
68140;SDS011;54941;52.220;104.306;2023-04-01T04:22:36;4.10;;;1.55;;
68140;SDS011;54941;52.220;104.306;2023-04-01T04:25:04;8.00;;;1.80;;
68140;SDS011;54941;52.220;104.306;2023-04-01T04:27:31;3.88;;;1.70;;
68140;SDS011;54941;52.220;104.306;2023-04-01T04:29:58;5.03;;;1.90;;
68140;SDS011;54941;52.220;104.306;2023-04-01T04:32:24;7.03;;;1.70;;
68140;SDS011;54941;52.220;104.306;2023-04-01T04:34:51;6.30;;;1.90;;
68140;SDS011;54941;52.220;104.306;2023-04-01T04:37:17;4.88;;;1.88;;
68140;SDS011;54941;52.220;104.306;2023-04-01T04:39:43;4.75;;;1.90;;
68140;SDS011;54941;52.220;104.306;2023-04-01T04:42:11;5.68;;;2.40;;
68140;SDS011;54941;52.220;104.306;2023-04-01T04:44:38;6.90;;;1.55;;
68140;SDS011;54941;52.220;104.306;2023-04-01T04:47:05;6.80;;;1.75;;
68140;SDS011;54941;52.220;104.306;2023-04-01T04:49:31;5.82;;;1.73;;
68140;SDS011;54941;52.220;104.306;2023-04-01T04:51:58;6.22;;;2.38;;
68140;SDS011;54941;52.220;104.306;2023-04-01T04:54:27;4.18;;;1.50;;
68140;SDS011;54941;52.220;104.306;2023-04-01T04:56:56;2.75;;;1.05;;
68140;SDS011;54941;52.220;104.306;2023-04-01T04:59:26;4.47;;;1.50;;
68140;SDS011;54941;52.220;104.306;2023-04-01T05:01:52;4.95;;;1.42;;
68140;SDS011;54941;52.220;104.306;2023-04-01T05:04:19;3.88;;;1.38;;
68140;SDS011;54941;52.220;104.306;2023-04-01T05:06:45;6.32;;;1.95;;
68140;SDS011;54941;52.220;104.306;2023-04-01T05:09:12;6.38;;;1.70;;
68140;SDS011;54941;52.220;104.306;2023-04-01T05:11:38;5.55;;;2.13;;
68140;SDS011;54941;52.220;104.306;2023-04-01T05:14:04;3.38;;;1.13;;
68140;SDS011;54941;52.220;104.306;2023-04-01T05:16:32;3.63;;;1.33;;
68140;SDS011;54941;52.220;104.306;2023-04-01T05:18:59;5.85;;;1.92;;
68140;SDS011;54941;52.220;104.306;2023-04-01T05:21:28;7.90;;;2.40;;
68140;SDS011;54941;52.220;104.306;2023-04-01T05:23:57;5.18;;;1.20;;
68140;SDS011;54941;52.220;104.306;2023-04-01T05:26:23;2.85;;;0.80;;
68140;SDS011;54941;52.220;104.306;2023-04-01T05:28:50;4.45;;;1.88;;
68140;SDS011;54941;52.220;104.306;2023-04-01T05:31:19;3.30;;;1.00;;
68140;SDS011;54941;52.220;104.306;2023-04-01T05:33:47;4.65;;;1.55;;
68140;SDS011;54941;52.220;104.306;2023-04-01T05:36:14;2.15;;;0.93;;
68140;SDS011;54941;52.220;104.306;2023-04-01T05:38:41;4.97;;;1.50;;
68140;SDS011;54941;52.220;104.306;2023-04-01T05:41:08;5.45;;;1.20;;
68140;SDS011;54941;52.220;104.306;2023-04-01T05:43:35;6.15;;;1.83;;
68140;SDS011;54941;52.220;104.306;2023-04-01T05:46:02;2.97;;;1.25;;
68140;SDS011;54941;52.220;104.306;2023-04-01T05:48:28;6.40;;;1.52;;
68140;SDS011;54941;52.220;104.306;2023-04-01T05:51:00;4.47;;;1.40;;
68140;SDS011;54941;52.220;104.306;2023-04-01T05:53:29;2.03;;;0.77;;
68140;SDS011;54941;52.220;104.306;2023-04-01T05:55:56;2.83;;;1.10;;
68140;SDS011;54941;52.220;104.306;2023-04-01T05:58:27;3.65;;;1.52;;
68140;SDS011;54941;52.220;104.306;2023-04-01T06:00:59;4.53;;;1.73;;
68140;SDS011;54941;52.220;104.306;2023-04-01T06:03:26;7.10;;;2.10;;
68140;SDS011;54941;52.220;104.306;2023-04-01T06:05:53;5.72;;;1.85;;
68140;SDS011;54941;52.220;104.306;2023-04-01T06:08:21;5.18;;;1.80;;
68140;SDS011;54941;52.220;104.306;2023-04-01T06:10:58;2.92;;;1.15;;
68140;SDS011;54941;52.220;104.306;2023-04-01T06:13:37;3.78;;;1.42;;
68140;SDS011;54941;52.220;104.306;2023-04-01T06:16:16;5.10;;;1.77;;
68140;SDS011;54941;52.220;104.306;2023-04-01T06:18:54;3.63;;;1.27;;
68140;SDS011;54941;52.220;104.306;2023-04-01T06:21:46;3.83;;;1.35;;
68140;SDS011;54941;52.220;104.306;2023-04-01T06:24:37;4.13;;;1.48;;
68140;SDS011;54941;52.220;104.306;2023-04-01T06:27:24;2.65;;;1.27;;
68140;SDS011;54941;52.220;104.306;2023-04-01T06:30:27;6.47;;;1.30;;
68140;SDS011;54941;52.220;104.306;2023-04-01T06:33:01;3.05;;;1.40;;
68140;SDS011;54941;52.220;104.306;2023-04-01T06:35:46;4.35;;;1.48;;
68140;SDS011;54941;52.220;104.306;2023-04-01T06:38:37;2.95;;;1.30;;
68140;SDS011;54941;52.220;104.306;2023-04-01T06:41:42;3.17;;;1.02;;
68140;SDS011;54941;52.220;104.306;2023-04-01T06:44:26;3.42;;;1.70;;
68140;SDS011;54941;52.220;104.306;2023-04-01T06:47:03;3.28;;;1.52;;
68140;SDS011;54941;52.220;104.306;2023-04-01T06:49:44;4.10;;;1.70;;
68140;SDS011;54941;52.220;104.306;2023-04-01T06:52:19;2.50;;;1.00;;
68140;SDS011;54941;52.220;104.306;2023-04-01T06:54:52;4.07;;;1.23;;
68140;SDS011;54941;52.220;104.306;2023-04-01T06:57:28;5.70;;;1.73;;
68140;SDS011;54941;52.220;104.306;2023-04-01T06:59:58;2.40;;;1.23;;
68140;SDS011;54941;52.220;104.306;2023-04-01T07:02:28;4.07;;;1.63;;
68140;SDS011;54941;52.220;104.306;2023-04-01T07:05:02;1.90;;;0.70;;
68140;SDS011;54941;52.220;104.306;2023-04-01T07:07:32;5.20;;;1.70;;
68140;SDS011;54941;52.220;104.306;2023-04-01T07:10:02;4.25;;;2.00;;
68140;SDS011;54941;52.220;104.306;2023-04-01T07:12:39;2.80;;;1.08;;
68140;SDS011;54941;52.220;104.306;2023-04-01T07:15:13;3.58;;;1.80;;
68140;SDS011;54941;52.220;104.306;2023-04-01T07:17:45;2.08;;;0.95;;
68140;SDS011;54941;52.220;104.306;2023-04-01T07:22:48;3.28;;;1.42;;
68140;SDS011;54941;52.220;104.306;2023-04-01T07:25:18;3.05;;;1.00;;
68140;SDS011;54941;52.220;104.306;2023-04-01T07:27:48;1.52;;;0.82;;
68140;SDS011;54941;52.220;104.306;2023-04-01T07:30:16;6.30;;;1.67;;
68140;SDS011;54941;52.220;104.306;2023-04-01T07:32:45;3.85;;;1.88;;
68140;SDS011;54941;52.220;104.306;2023-04-01T07:35:19;2.83;;;1.30;;
68140;SDS011;54941;52.220;104.306;2023-04-01T07:37:58;6.57;;;1.60;;
68140;SDS011;54941;52.220;104.306;2023-04-01T07:40:39;3.13;;;1.67;;
68140;SDS011;54941;52.220;104.306;2023-04-01T07:43:25;4.20;;;1.75;;
68140;SDS011;54941;52.220;104.306;2023-04-01T07:46:10;2.10;;;1.00;;
68140;SDS011;54941;52.220;104.306;2023-04-01T07:48:47;2.80;;;1.25;;
68140;SDS011;54941;52.220;104.306;2023-04-01T07:53:53;4.22;;;1.58;;
68140;SDS011;54941;52.220;104.306;2023-04-01T07:56:28;5.15;;;2.22;;
68140;SDS011;54941;52.220;104.306;2023-04-01T07:59:05;5.25;;;1.33;;
68140;SDS011;54941;52.220;104.306;2023-04-01T08:01:42;1.75;;;0.85;;
68140;SDS011;54941;52.220;104.306;2023-04-01T08:04:23;2.03;;;1.00;;
68140;SDS011;54941;52.220;104.306;2023-04-01T08:06:59;1.70;;;0.85;;
68140;SDS011;54941;52.220;104.306;2023-04-01T08:09:33;3.30;;;1.42;;
68140;SDS011;54941;52.220;104.306;2023-04-01T08:12:10;4.30;;;1.05;;
68140;SDS011;54941;52.220;104.306;2023-04-01T08:14:52;3.05;;;1.33;;
68140;SDS011;54941;52.220;104.306;2023-04-01T08:17:28;1.83;;;0.75;;
68140;SDS011;54941;52.220;104.306;2023-04-01T08:20:08;3.13;;;0.95;;
68140;SDS011;54941;52.220;104.306;2023-04-01T08:22:45;4.90;;;1.95;;
68140;SDS011;54941;52.220;104.306;2023-04-01T08:25:17;3.88;;;1.40;;
68140;SDS011;54941;52.220;104.306;2023-04-01T08:27:48;2.08;;;1.13;;
68140;SDS011;54941;52.220;104.306;2023-04-01T08:30:21;2.92;;;1.30;;
68140;SDS011;54941;52.220;104.306;2023-04-01T08:32:51;2.63;;;0.90;;
68140;SDS011;54941;52.220;104.306;2023-04-01T08:35:26;2.45;;;0.98;;
68140;SDS011;54941;52.220;104.306;2023-04-01T08:37:55;3.22;;;0.70;;
68140;SDS011;54941;52.220;104.306;2023-04-01T08:40:49;3.35;;;1.35;;
68140;SDS011;54941;52.220;104.306;2023-04-01T08:49:37;4.90;;;1.35;;
68140;SDS011;54941;52.220;104.306;2023-04-01T08:52:22;2.38;;;1.10;;
68140;SDS011;54941;52.220;104.306;2023-04-01T08:55:12;4.78;;;1.48;;
68140;SDS011;54941;52.220;104.306;2023-04-01T08:58:18;2.05;;;0.98;;
68140;SDS011;54941;52.220;104.306;2023-04-01T09:01:01;2.60;;;0.93;;
68140;SDS011;54941;52.220;104.306;2023-04-01T09:03:46;1.73;;;0.98;;
68140;SDS011;54941;52.220;104.306;2023-04-01T09:06:31;2.88;;;1.10;;
68140;SDS011;54941;52.220;104.306;2023-04-01T09:09:09;4.65;;;1.15;;
68140;SDS011;54941;52.220;104.306;2023-04-01T09:12:26;3.80;;;1.48;;
68140;SDS011;54941;52.220;104.306;2023-04-01T09:21:21;2.33;;;0.63;;
68140;SDS011;54941;52.220;104.306;2023-04-01T09:24:06;2.67;;;0.90;;
68140;SDS011;54941;52.220;104.306;2023-04-01T09:26:55;4.82;;;1.30;;
68140;SDS011;54941;52.220;104.306;2023-04-01T09:29:36;2.38;;;0.70;;
68140;SDS011;54941;52.220;104.306;2023-04-01T09:32:24;3.25;;;1.20;;
68140;SDS011;54941;52.220;104.306;2023-04-01T09:35:20;3.00;;;1.73;;
68140;SDS011;54941;52.220;104.306;2023-04-01T09:43:08;2.90;;;1.00;;
68140;SDS011;54941;52.220;104.306;2023-04-01T09:46:03;3.80;;;1.27;;
68140;SDS011;54941;52.220;104.306;2023-04-01T09:48:41;3.38;;;1.20;;
68140;SDS011;54941;52.220;104.306;2023-04-01T09:51:23;3.17;;;1.25;;
68140;SDS011;54941;52.220;104.306;2023-04-01T09:54:01;3.13;;;1.20;;
68140;SDS011;54941;52.220;104.306;2023-04-01T09:56:49;2.75;;;1.30;;
68140;SDS011;54941;52.220;104.306;2023-04-01T10:05:58;3.33;;;1.40;;
68140;SDS011;54941;52.220;104.306;2023-04-01T10:08:58;1.42;;;0.63;;
68140;SDS011;54941;52.220;104.306;2023-04-01T10:12:06;3.45;;;1.27;;
68140;SDS011;54941;52.220;104.306;2023-04-01T10:15:16;3.88;;;1.40;;
68140;SDS011;54941;52.220;104.306;2023-04-01T10:18:04;2.95;;;1.15;;
68140;SDS011;54941;52.220;104.306;2023-04-01T10:24:09;2.95;;;1.67;;
68140;SDS011;54941;52.220;104.306;2023-04-01T10:26:55;3.00;;;1.08;;
68140;SDS011;54941;52.220;104.306;2023-04-01T10:29:52;3.60;;;1.45;;
68140;SDS011;54941;52.220;104.306;2023-04-01T10:32:47;5.03;;;1.90;;
68140;SDS011;54941;52.220;104.306;2023-04-01T10:38:41;4.45;;;1.83;;
68140;SDS011;54941;52.220;104.306;2023-04-01T10:41:41;4.78;;;1.90;;
68140;SDS011;54941;52.220;104.306;2023-04-01T10:44:29;3.55;;;1.63;;
68140;SDS011;54941;52.220;104.306;2023-04-01T10:47:50;3.90;;;1.10;;
68140;SDS011;54941;52.220;104.306;2023-04-01T10:56:25;2.92;;;0.85;;
68140;SDS011;54941;52.220;104.306;2023-04-01T11:05:36;3.88;;;1.33;;
68140;SDS011;54941;52.220;104.306;2023-04-01T11:14:43;2.65;;;1.20;;
68140;SDS011;54941;52.220;104.306;2023-04-01T11:23:58;8.35;;;1.52;;
68140;SDS011;54941;52.220;104.306;2023-04-01T11:26:41;2.63;;;1.10;;
68140;SDS011;54941;52.220;104.306;2023-04-01T11:32:24;2.05;;;0.70;;
68140;SDS011;54941;52.220;104.306;2023-04-01T11:38:29;2.15;;;0.68;;
68140;SDS011;54941;52.220;104.306;2023-04-01T11:41:10;3.90;;;1.42;;
68140;SDS011;54941;52.220;104.306;2023-04-01T11:43:53;6.50;;;1.05;;
68140;SDS011;54941;52.220;104.306;2023-04-01T11:46:31;3.28;;;1.27;;
68140;SDS011;54941;52.220;104.306;2023-04-01T11:49:07;3.83;;;1.33;;
68140;SDS011;54941;52.220;104.306;2023-04-01T11:51:51;3.80;;;1.23;;
68140;SDS011;54941;52.220;104.306;2023-04-01T11:54:41;3.85;;;1.55;;
68140;SDS011;54941;52.220;104.306;2023-04-01T11:57:38;4.65;;;1.67;;
68140;SDS011;54941;52.220;104.306;2023-04-01T12:00:29;3.45;;;1.60;;
68140;SDS011;54941;52.220;104.306;2023-04-01T12:03:16;4.30;;;1.55;;
68140;SDS011;54941;52.220;104.306;2023-04-01T12:05:58;5.20;;;1.55;;
68140;SDS011;54941;52.220;104.306;2023-04-01T12:08:35;6.40;;;3.05;;
68140;SDS011;54941;52.220;104.306;2023-04-01T12:11:14;6.47;;;2.42;;
68140;SDS011;54941;52.220;104.306;2023-04-01T12:13:49;6.85;;;2.47;;
68140;SDS011;54941;52.220;104.306;2023-04-01T12:21:52;10.15;;;2.90;;
68140;SDS011;54941;52.220;104.306;2023-04-01T12:33:20;8.93;;;2.58;;
68140;SDS011;54941;52.220;104.306;2023-04-01T12:36:00;10.80;;;2.72;;
68140;SDS011;54941;52.220;104.306;2023-04-01T12:38:38;6.13;;;2.25;;
68140;SDS011;54941;52.220;104.306;2023-04-01T12:41:14;7.45;;;2.58;;
68140;SDS011;54941;52.220;104.306;2023-04-01T12:47:13;7.30;;;2.90;;
68140;SDS011;54941;52.220;104.306;2023-04-01T12:53:10;6.05;;;2.28;;
68140;SDS011;54941;52.220;104.306;2023-04-01T12:55:50;8.60;;;2.92;;
68140;SDS011;54941;52.220;104.306;2023-04-01T12:58:29;6.10;;;2.40;;
68140;SDS011;54941;52.220;104.306;2023-04-01T13:01:27;5.28;;;2.28;;
68140;SDS011;54941;52.220;104.306;2023-04-01T13:04:25;8.95;;;3.45;;
68140;SDS011;54941;52.220;104.306;2023-04-01T13:07:16;9.45;;;2.88;;
68140;SDS011;54941;52.220;104.306;2023-04-01T13:09:52;8.38;;;2.95;;
68140;SDS011;54941;52.220;104.306;2023-04-01T13:12:36;5.88;;;2.17;;
68140;SDS011;54941;52.220;104.306;2023-04-01T13:15:20;4.80;;;2.17;;
68140;SDS011;54941;52.220;104.306;2023-04-01T13:17:53;6.32;;;1.85;;
68140;SDS011;54941;52.220;104.306;2023-04-01T13:20:32;6.28;;;2.55;;
68140;SDS011;54941;52.220;104.306;2023-04-01T13:23:11;8.27;;;2.83;;
68140;SDS011;54941;52.220;104.306;2023-04-01T13:25:51;12.43;;;3.20;;
68140;SDS011;54941;52.220;104.306;2023-04-01T13:28:25;9.50;;;2.92;;
68140;SDS011;54941;52.220;104.306;2023-04-01T13:30:58;5.35;;;2.35;;
68140;SDS011;54941;52.220;104.306;2023-04-01T13:33:29;6.13;;;2.22;;
68140;SDS011;54941;52.220;104.306;2023-04-01T13:36:10;4.95;;;1.88;;
68140;SDS011;54941;52.220;104.306;2023-04-01T13:41:26;9.18;;;2.55;;
68140;SDS011;54941;52.220;104.306;2023-04-01T13:44:06;8.30;;;1.85;;
68140;SDS011;54941;52.220;104.306;2023-04-01T13:49:45;6.28;;;2.60;;
68140;SDS011;54941;52.220;104.306;2023-04-01T13:52:33;7.65;;;2.70;;
68140;SDS011;54941;52.220;104.306;2023-04-01T13:55:23;10.02;;;3.05;;
68140;SDS011;54941;52.220;104.306;2023-04-01T14:01:00;7.10;;;2.80;;
68140;SDS011;54941;52.220;104.306;2023-04-01T14:03:50;7.18;;;3.15;;
68140;SDS011;54941;52.220;104.306;2023-04-01T14:06:31;6.85;;;3.22;;
68140;SDS011;54941;52.220;104.306;2023-04-01T14:12:04;10.02;;;2.95;;
68140;SDS011;54941;52.220;104.306;2023-04-01T14:14:44;6.90;;;2.70;;
68140;SDS011;54941;52.220;104.306;2023-04-01T14:20:25;5.40;;;2.60;;
68140;SDS011;54941;52.220;104.306;2023-04-01T14:23:03;10.90;;;2.72;;
68140;SDS011;54941;52.220;104.306;2023-04-01T14:28:55;9.23;;;2.15;;
68140;SDS011;54941;52.220;104.306;2023-04-01T14:31:34;4.53;;;2.10;;
68140;SDS011;54941;52.220;104.306;2023-04-01T14:34:22;6.47;;;2.17;;
68140;SDS011;54941;52.220;104.306;2023-04-01T14:37:01;9.93;;;2.60;;
68140;SDS011;54941;52.220;104.306;2023-04-01T14:39:59;6.97;;;2.92;;
68140;SDS011;54941;52.220;104.306;2023-04-01T14:46:10;5.50;;;2.15;;
68140;SDS011;54941;52.220;104.306;2023-04-01T14:49:00;6.75;;;2.90;;
68140;SDS011;54941;52.220;104.306;2023-04-01T14:51:32;9.35;;;2.78;;
68140;SDS011;54941;52.220;104.306;2023-04-01T14:54:04;8.23;;;2.80;;
68140;SDS011;54941;52.220;104.306;2023-04-01T14:56:41;13.75;;;3.40;;
68140;SDS011;54941;52.220;104.306;2023-04-01T14:59:14;6.57;;;2.80;;
68140;SDS011;54941;52.220;104.306;2023-04-01T15:01:54;6.78;;;3.22;;
68140;SDS011;54941;52.220;104.306;2023-04-01T15:04:43;6.32;;;2.90;;
68140;SDS011;54941;52.220;104.306;2023-04-01T15:10:10;9.05;;;3.28;;
68140;SDS011;54941;52.220;104.306;2023-04-01T15:12:51;7.68;;;3.00;;
68140;SDS011;54941;52.220;104.306;2023-04-01T15:15:31;8.68;;;2.85;;
68140;SDS011;54941;52.220;104.306;2023-04-01T15:18:09;8.18;;;2.20;;
68140;SDS011;54941;52.220;104.306;2023-04-01T15:23:45;6.43;;;2.90;;
68140;SDS011;54941;52.220;104.306;2023-04-01T15:26:31;6.05;;;2.40;;
68140;SDS011;54941;52.220;104.306;2023-04-01T15:29:19;9.48;;;3.15;;
68140;SDS011;54941;52.220;104.306;2023-04-01T15:32:06;9.15;;;2.70;;
68140;SDS011;54941;52.220;104.306;2023-04-01T15:34:45;14.23;;;3.15;;
68140;SDS011;54941;52.220;104.306;2023-04-01T15:37:18;5.72;;;2.67;;
68140;SDS011;54941;52.220;104.306;2023-04-01T15:39:56;7.85;;;3.03;;
68140;SDS011;54941;52.220;104.306;2023-04-01T15:42:40;8.07;;;3.15;;
68140;SDS011;54941;52.220;104.306;2023-04-01T15:45:29;6.05;;;2.10;;
68140;SDS011;54941;52.220;104.306;2023-04-01T15:48:05;9.70;;;2.97;;
68140;SDS011;54941;52.220;104.306;2023-04-01T15:53:53;6.57;;;2.40;;
68140;SDS011;54941;52.220;104.306;2023-04-01T15:56:46;5.95;;;2.85;;
68140;SDS011;54941;52.220;104.306;2023-04-01T15:59:41;7.63;;;2.80;;
68140;SDS011;54941;52.220;104.306;2023-04-01T16:02:21;7.03;;;2.25;;
68140;SDS011;54941;52.220;104.306;2023-04-01T16:04:54;8.45;;;2.45;;
68140;SDS011;54941;52.220;104.306;2023-04-01T16:07:39;6.65;;;2.85;;
68140;SDS011;54941;52.220;104.306;2023-04-01T16:10:19;14.07;;;3.65;;
68140;SDS011;54941;52.220;104.306;2023-04-01T16:12:59;8.73;;;2.95;;
68140;SDS011;54941;52.220;104.306;2023-04-01T16:15:39;8.13;;;2.60;;
68140;SDS011;54941;52.220;104.306;2023-04-01T16:21:11;8.68;;;2.97;;
68140;SDS011;54941;52.220;104.306;2023-04-01T16:23:47;6.07;;;2.70;;
68140;SDS011;54941;52.220;104.306;2023-04-01T16:26:18;9.48;;;3.85;;
68140;SDS011;54941;52.220;104.306;2023-04-01T16:28:55;6.60;;;2.65;;
68140;SDS011;54941;52.220;104.306;2023-04-01T16:31:31;9.20;;;3.53;;
68140;SDS011;54941;52.220;104.306;2023-04-01T16:34:02;10.27;;;3.97;;
68140;SDS011;54941;52.220;104.306;2023-04-01T16:36:34;7.53;;;3.10;;
68140;SDS011;54941;52.220;104.306;2023-04-01T16:39:16;7.88;;;2.72;;
68140;SDS011;54941;52.220;104.306;2023-04-01T16:41:54;9.25;;;3.05;;
68140;SDS011;54941;52.220;104.306;2023-04-01T16:44:44;7.93;;;2.92;;
68140;SDS011;54941;52.220;104.306;2023-04-01T16:47:16;8.57;;;3.05;;
68140;SDS011;54941;52.220;104.306;2023-04-01T16:49:47;8.65;;;3.20;;
68140;SDS011;54941;52.220;104.306;2023-04-01T16:52:29;7.68;;;2.90;;
68140;SDS011;54941;52.220;104.306;2023-04-01T16:55:03;6.85;;;2.58;;
68140;SDS011;54941;52.220;104.306;2023-04-01T16:57:43;6.10;;;3.10;;
68140;SDS011;54941;52.220;104.306;2023-04-01T17:00:20;6.25;;;2.60;;
68140;SDS011;54941;52.220;104.306;2023-04-01T17:02:54;6.40;;;2.83;;
68140;SDS011;54941;52.220;104.306;2023-04-01T17:08:27;13.13;;;5.50;;
68140;SDS011;54941;52.220;104.306;2023-04-01T17:11:12;8.63;;;3.10;;
68140;SDS011;54941;52.220;104.306;2023-04-01T17:13:46;7.25;;;3.08;;
68140;SDS011;54941;52.220;104.306;2023-04-01T17:19:18;8.73;;;3.05;;
68140;SDS011;54941;52.220;104.306;2023-04-01T17:22:02;8.55;;;2.72;;
68140;SDS011;54941;52.220;104.306;2023-04-01T17:24:41;8.45;;;2.58;;
68140;SDS011;54941;52.220;104.306;2023-04-01T17:27:20;11.90;;;3.35;;
68140;SDS011;54941;52.220;104.306;2023-04-01T17:30:04;9.68;;;2.78;;